Main page
METAR-TAF:

METAR-TAF

Airports :

Funafuti International Airport

Funafuti, Tuvalu

latitude: 08-31S, longitude: 179-13E, elevation: 1 m

Current weather observation

The report was made 36 minutes ago, at 04:00 UTC
Wind 5 kt from the East
Temperature 31°C
Humidity 66%
Pressure 1008 hPa
Visibility 10 km or more
Few clouds at a height of 1600 ft, Towering cumulus.
Scattered clouds at a height of 2000 ft

METAR: NGFU 160400Z 09005KT 9999 FEW016TCU SCT020 31/24 Q1008

Time: 16:36 (04:36 UTC)

Forecast

The report was made 5 hours and 28 minutes ago, at 23:08 UTC
Forecast valid from 16 at 00 UTC to 16 at 24 UTC
Wind 9 kt from the East/Southeast
Visibility 10 km or more
Scattered clouds at a height of 1800 ft

TAF: NGFU 152308Z 1600/1624 11009KT 9999 SCT018

Weather observations and forecasts of more than 4000 airports (METAR and TAF reports).

The available stations are represented by yellow and red dots on the map.

Hover mouse over dot to see the name of the station.

Then click to see weather observations and forecasts.

To change the map : click on the green buttons with a black cross to zoom in, on the green button with a dash to zoom out, or on the green arrows for adjacent maps.


METAR-TAF: